Startpagina
METAR-TAF:

METAR-TAF

Vliegvelden :

Aéroport de Paris-Beauvais-Tillé

Beauvais, Frankrijk

breedte: 49-28N, lengte: 002-07E, hoogte: 109 m

Actueel weer

Dit bericht is 42 minuten geleden gemaakt, om 03:00 UTC
Wind 2 kt uit variabele richting
Temperatuur 5°C
Vochtigheid 100%
Druk 1010 hPa
Zicht 10 km of meer
geen wolken onder 1500 m en geen cumulonimbus

METAR: LFOB 260300Z AUTO VRB02KT CAVOK 05/05 Q1010 NOSIG

Tijdstip: 05:42 (03:42 UTC)

Verwachting

Dit bericht is 4 uur en het 42 minuten geleden gemaakt, om 23:00 UTC
Verwachting geldig van 26 om 00 UTC tot 26 om 24 UTC
Wind 8 kt uit het zuiden
Zicht 10 km of meer
Gebroken wolken op 3000 ft
Tijdelijke
van 26 om 13 UTC tot 26 om 17 UTC
Zicht: 4000 m
Gebroken wolken op 3000 ft, Stapelwolken.
regenbuien

TAF: LFOB 252300Z 2600/2624 18008KT 9999 BKN030 TEMPO 2613/2617 4000 SHRA BKN030TCU

Waarnemingen en weersverwachtingen van meer dan 4000 vliegvelden (METAR en TAF).

De beschikbare stations zijn de gele en rode punten op de kaart.

Ga met uw muis naar het station om de naam te zien.

Klik dan om waarnemingen en weersverwachtingen te zien.

kaart wijzigen: klik op de groene knoppen met een zwart kruis om in te zoomen, op de groene knop met een streepje om uit te zoomen of op de groene pijlen voor aangrenzende kaarten.


METAR-TAF: